sensor_id;sensor_type;location;lat;lon;timestamp;P1;durP1;ratioP1;P2;durP2;ratioP2
59109;SDS011;44895;47.438;18.978;2022-11-20T00:02:48;22.25;;;12.10;;
59109;SDS011;44895;47.438;18.978;2022-11-20T00:05:52;23.80;;;14.30;;
59109;SDS011;44895;47.438;18.978;2022-11-20T00:08:57;22.92;;;11.18;;
59109;SDS011;44895;47.438;18.978;2022-11-20T00:12:03;21.95;;;11.68;;
59109;SDS011;44895;47.438;18.978;2022-11-20T00:15:08;23.60;;;11.50;;
59109;SDS011;44895;47.438;18.978;2022-11-20T00:18:12;20.35;;;11.05;;
59109;SDS011;44895;47.438;18.978;2022-11-20T00:21:17;22.63;;;10.38;;
59109;SDS011;44895;47.438;18.978;2022-11-20T00:24:25;23.08;;;11.48;;
59109;SDS011;44895;47.438;18.978;2022-11-20T00:27:28;26.38;;;12.63;;
59109;SDS011;44895;47.438;18.978;2022-11-20T00:30:33;20.98;;;11.38;;
59109;SDS011;44895;47.438;18.978;2022-11-20T00:33:36;21.48;;;11.50;;
59109;SDS011;44895;47.438;18.978;2022-11-20T00:36:40;20.27;;;10.98;;
59109;SDS011;44895;47.438;18.978;2022-11-20T00:39:44;17.63;;;10.02;;
59109;SDS011;44895;47.438;18.978;2022-11-20T00:42:48;23.73;;;12.75;;
59109;SDS011;44895;47.438;18.978;2022-11-20T00:45:58;20.80;;;11.00;;
59109;SDS011;44895;47.438;18.978;2022-11-20T00:52:13;22.85;;;11.18;;
59109;SDS011;44895;47.438;18.978;2022-11-20T00:55:17;25.10;;;12.77;;
59109;SDS011;44895;47.438;18.978;2022-11-20T00:58:21;19.67;;;11.50;;
59109;SDS011;44895;47.438;18.978;2022-11-20T01:01:26;22.75;;;12.93;;
59109;SDS011;44895;47.438;18.978;2022-11-20T01:04:32;21.90;;;11.93;;
59109;SDS011;44895;47.438;18.978;2022-11-20T01:07:35;21.65;;;11.48;;
59109;SDS011;44895;47.438;18.978;2022-11-20T01:10:39;19.60;;;10.00;;
59109;SDS011;44895;47.438;18.978;2022-11-20T01:13:44;18.88;;;10.10;;
59109;SDS011;44895;47.438;18.978;2022-11-20T01:16:50;24.25;;;10.43;;
59109;SDS011;44895;47.438;18.978;2022-11-20T01:19:54;23.10;;;12.02;;
59109;SDS011;44895;47.438;18.978;2022-11-20T01:22:58;22.33;;;10.05;;
59109;SDS011;44895;47.438;18.978;2022-11-20T01:26:05;23.50;;;11.43;;
59109;SDS011;44895;47.438;18.978;2022-11-20T01:29:22;23.50;;;10.88;;
59109;SDS011;44895;47.438;18.978;2022-11-20T01:32:27;23.02;;;11.55;;
59109;SDS011;44895;47.438;18.978;2022-11-20T01:35:31;21.85;;;12.38;;
59109;SDS011;44895;47.438;18.978;2022-11-20T01:38:34;25.52;;;11.82;;
59109;SDS011;44895;47.438;18.978;2022-11-20T01:41:38;22.80;;;12.23;;
59109;SDS011;44895;47.438;18.978;2022-11-20T01:45:01;20.50;;;11.73;;
59109;SDS011;44895;47.438;18.978;2022-11-20T01:48:05;24.50;;;13.85;;
59109;SDS011;44895;47.438;18.978;2022-11-20T01:51:13;26.75;;;13.60;;
59109;SDS011;44895;47.438;18.978;2022-11-20T01:54:24;23.23;;;13.07;;
59109;SDS011;44895;47.438;18.978;2022-11-20T01:57:34;24.73;;;14.43;;
59109;SDS011;44895;47.438;18.978;2022-11-20T02:00:40;24.45;;;13.20;;
59109;SDS011;44895;47.438;18.978;2022-11-20T02:03:44;30.00;;;12.10;;
59109;SDS011;44895;47.438;18.978;2022-11-20T02:07:22;25.27;;;13.80;;
59109;SDS011;44895;47.438;18.978;2022-11-20T02:10:19;29.02;;;16.17;;
59109;SDS011;44895;47.438;18.978;2022-11-20T02:13:24;27.73;;;15.30;;
59109;SDS011;44895;47.438;18.978;2022-11-20T02:16:47;30.75;;;17.58;;
59109;SDS011;44895;47.438;18.978;2022-11-20T02:19:52;29.73;;;14.02;;
59109;SDS011;44895;47.438;18.978;2022-11-20T02:26:09;29.73;;;16.20;;
59109;SDS011;44895;47.438;18.978;2022-11-20T02:29:17;29.27;;;15.75;;
59109;SDS011;44895;47.438;18.978;2022-11-20T02:32:32;25.88;;;15.15;;
59109;SDS011;44895;47.438;18.978;2022-11-20T02:35:39;32.78;;;17.60;;
59109;SDS011;44895;47.438;18.978;2022-11-20T02:41:49;27.88;;;15.73;;
59109;SDS011;44895;47.438;18.978;2022-11-20T02:44:53;28.88;;;14.13;;
59109;SDS011;44895;47.438;18.978;2022-11-20T02:47:57;27.27;;;14.25;;
59109;SDS011;44895;47.438;18.978;2022-11-20T02:51:01;28.90;;;14.48;;
59109;SDS011;44895;47.438;18.978;2022-11-20T02:54:05;29.92;;;15.10;;
59109;SDS011;44895;47.438;18.978;2022-11-20T02:57:09;27.88;;;14.55;;
59109;SDS011;44895;47.438;18.978;2022-11-20T03:00:12;29.08;;;15.68;;
59109;SDS011;44895;47.438;18.978;2022-11-20T03:03:17;29.13;;;14.00;;
59109;SDS011;44895;47.438;18.978;2022-11-20T03:06:21;32.00;;;15.50;;
59109;SDS011;44895;47.438;18.978;2022-11-20T03:09:25;30.30;;;16.70;;
59109;SDS011;44895;47.438;18.978;2022-11-20T03:12:29;23.52;;;15.13;;
59109;SDS011;44895;47.438;18.978;2022-11-20T03:15:33;27.40;;;14.10;;
59109;SDS011;44895;47.438;18.978;2022-11-20T03:18:39;27.90;;;15.80;;
59109;SDS011;44895;47.438;18.978;2022-11-20T03:21:43;32.38;;;15.13;;
59109;SDS011;44895;47.438;18.978;2022-11-20T03:24:48;27.48;;;15.55;;
59109;SDS011;44895;47.438;18.978;2022-11-20T03:27:52;27.85;;;16.13;;
59109;SDS011;44895;47.438;18.978;2022-11-20T03:30:55;25.52;;;12.27;;
59109;SDS011;44895;47.438;18.978;2022-11-20T03:33:59;28.35;;;12.63;;
59109;SDS011;44895;47.438;18.978;2022-11-20T03:37:04;25.88;;;13.23;;
59109;SDS011;44895;47.438;18.978;2022-11-20T03:40:08;28.83;;;13.60;;
59109;SDS011;44895;47.438;18.978;2022-11-20T03:43:12;25.95;;;14.50;;
59109;SDS011;44895;47.438;18.978;2022-11-20T03:46:16;25.60;;;12.95;;
59109;SDS011;44895;47.438;18.978;2022-11-20T03:49:21;27.83;;;13.75;;
59109;SDS011;44895;47.438;18.978;2022-11-20T03:52:25;26.67;;;13.10;;
59109;SDS011;44895;47.438;18.978;2022-11-20T03:55:29;26.08;;;14.38;;
59109;SDS011;44895;47.438;18.978;2022-11-20T03:58:37;27.73;;;14.85;;
59109;SDS011;44895;47.438;18.978;2022-11-20T04:01:45;24.77;;;12.73;;
59109;SDS011;44895;47.438;18.978;2022-11-20T04:04:49;29.23;;;14.40;;
59109;SDS011;44895;47.438;18.978;2022-11-20T04:07:53;26.05;;;14.65;;
59109;SDS011;44895;47.438;18.978;2022-11-20T04:11:07;26.13;;;13.90;;
59109;SDS011;44895;47.438;18.978;2022-11-20T04:14:24;21.50;;;12.45;;
59109;SDS011;44895;47.438;18.978;2022-11-20T04:17:28;22.45;;;14.13;;
59109;SDS011;44895;47.438;18.978;2022-11-20T04:20:33;22.58;;;11.60;;
59109;SDS011;44895;47.438;18.978;2022-11-20T04:23:38;23.40;;;12.38;;
59109;SDS011;44895;47.438;18.978;2022-11-20T04:26:42;22.95;;;12.25;;
59109;SDS011;44895;47.438;18.978;2022-11-20T04:29:46;24.92;;;13.18;;
59109;SDS011;44895;47.438;18.978;2022-11-20T04:32:50;20.00;;;11.32;;
59109;SDS011;44895;47.438;18.978;2022-11-20T04:35:55;28.33;;;15.15;;
59109;SDS011;44895;47.438;18.978;2022-11-20T04:39:05;22.23;;;12.20;;
59109;SDS011;44895;47.438;18.978;2022-11-20T04:42:10;23.80;;;12.50;;
59109;SDS011;44895;47.438;18.978;2022-11-20T04:45:32;23.80;;;12.13;;
59109;SDS011;44895;47.438;18.978;2022-11-20T04:48:37;24.75;;;11.88;;
59109;SDS011;44895;47.438;18.978;2022-11-20T04:51:42;24.20;;;12.35;;
59109;SDS011;44895;47.438;18.978;2022-11-20T04:54:45;23.27;;;12.10;;
59109;SDS011;44895;47.438;18.978;2022-11-20T04:57:50;29.33;;;13.88;;
59109;SDS011;44895;47.438;18.978;2022-11-20T05:01:02;26.65;;;13.35;;
59109;SDS011;44895;47.438;18.978;2022-11-20T05:04:07;23.48;;;13.70;;
59109;SDS011;44895;47.438;18.978;2022-11-20T05:07:11;22.83;;;12.55;;
59109;SDS011;44895;47.438;18.978;2022-11-20T05:10:16;22.80;;;13.43;;
59109;SDS011;44895;47.438;18.978;2022-11-20T05:13:20;23.48;;;12.43;;
59109;SDS011;44895;47.438;18.978;2022-11-20T05:16:24;27.75;;;14.90;;
59109;SDS011;44895;47.438;18.978;2022-11-20T05:19:28;29.02;;;13.23;;
59109;SDS011;44895;47.438;18.978;2022-11-20T05:22:34;23.20;;;13.60;;
59109;SDS011;44895;47.438;18.978;2022-11-20T05:25:38;24.95;;;13.30;;
59109;SDS011;44895;47.438;18.978;2022-11-20T05:28:42;23.73;;;14.07;;
59109;SDS011;44895;47.438;18.978;2022-11-20T05:31:46;23.30;;;13.05;;
59109;SDS011;44895;47.438;18.978;2022-11-20T05:34:51;24.05;;;15.20;;
59109;SDS011;44895;47.438;18.978;2022-11-20T05:37:56;25.15;;;12.82;;
59109;SDS011;44895;47.438;18.978;2022-11-20T05:41:06;23.77;;;13.02;;
59109;SDS011;44895;47.438;18.978;2022-11-20T05:44:12;25.20;;;12.95;;
59109;SDS011;44895;47.438;18.978;2022-11-20T05:47:17;20.00;;;11.60;;
59109;SDS011;44895;47.438;18.978;2022-11-20T05:50:20;24.33;;;14.05;;
59109;SDS011;44895;47.438;18.978;2022-11-20T05:53:24;23.08;;;14.10;;
59109;SDS011;44895;47.438;18.978;2022-11-20T05:56:29;22.70;;;12.43;;
59109;SDS011;44895;47.438;18.978;2022-11-20T05:59:33;22.02;;;12.52;;
59109;SDS011;44895;47.438;18.978;2022-11-20T06:02:37;23.40;;;11.45;;
59109;SDS011;44895;47.438;18.978;2022-11-20T06:05:41;24.85;;;14.50;;
59109;SDS011;44895;47.438;18.978;2022-11-20T06:08:45;21.88;;;11.15;;
59109;SDS011;44895;47.438;18.978;2022-11-20T06:11:49;22.67;;;12.88;;
59109;SDS011;44895;47.438;18.978;2022-11-20T06:14:53;21.67;;;13.30;;
59109;SDS011;44895;47.438;18.978;2022-11-20T06:17:59;23.27;;;13.43;;
59109;SDS011;44895;47.438;18.978;2022-11-20T06:21:06;22.83;;;13.10;;
59109;SDS011;44895;47.438;18.978;2022-11-20T06:24:11;26.67;;;14.13;;
59109;SDS011;44895;47.438;18.978;2022-11-20T06:27:16;26.95;;;12.48;;
59109;SDS011;44895;47.438;18.978;2022-11-20T06:30:20;21.23;;;13.25;;
59109;SDS011;44895;47.438;18.978;2022-11-20T06:33:24;18.30;;;10.98;;
59109;SDS011;44895;47.438;18.978;2022-11-20T06:36:28;20.65;;;11.55;;
59109;SDS011;44895;47.438;18.978;2022-11-20T06:39:32;21.38;;;12.05;;
59109;SDS011;44895;47.438;18.978;2022-11-20T06:42:36;21.10;;;11.57;;
59109;SDS011;44895;47.438;18.978;2022-11-20T06:45:40;22.35;;;11.75;;
59109;SDS011;44895;47.438;18.978;2022-11-20T06:48:44;23.48;;;12.75;;
59109;SDS011;44895;47.438;18.978;2022-11-20T06:51:48;20.05;;;11.00;;
59109;SDS011;44895;47.438;18.978;2022-11-20T06:54:52;19.88;;;11.27;;
59109;SDS011;44895;47.438;18.978;2022-11-20T06:57:56;20.08;;;11.48;;
59109;SDS011;44895;47.438;18.978;2022-11-20T07:01:01;20.23;;;9.90;;
59109;SDS011;44895;47.438;18.978;2022-11-20T07:04:07;21.05;;;12.07;;
59109;SDS011;44895;47.438;18.978;2022-11-20T07:07:10;17.67;;;9.55;;
59109;SDS011;44895;47.438;18.978;2022-11-20T07:10:15;21.98;;;12.20;;
59109;SDS011;44895;47.438;18.978;2022-11-20T07:13:18;19.55;;;9.70;;
59109;SDS011;44895;47.438;18.978;2022-11-20T07:16:22;20.30;;;11.75;;
59109;SDS011;44895;47.438;18.978;2022-11-20T07:19:26;19.92;;;12.80;;
59109;SDS011;44895;47.438;18.978;2022-11-20T07:22:30;25.25;;;14.93;;
59109;SDS011;44895;47.438;18.978;2022-11-20T07:25:35;21.10;;;12.85;;
59109;SDS011;44895;47.438;18.978;2022-11-20T07:28:39;21.02;;;12.27;;
59109;SDS011;44895;47.438;18.978;2022-11-20T07:31:43;22.92;;;13.15;;
59109;SDS011;44895;47.438;18.978;2022-11-20T07:34:47;27.20;;;14.65;;
59109;SDS011;44895;47.438;18.978;2022-11-20T07:37:52;23.05;;;13.70;;
59109;SDS011;44895;47.438;18.978;2022-11-20T07:40:56;20.42;;;11.20;;
59109;SDS011;44895;47.438;18.978;2022-11-20T07:44:06;22.13;;;13.60;;
59109;SDS011;44895;47.438;18.978;2022-11-20T07:47:10;22.13;;;13.45;;
59109;SDS011;44895;47.438;18.978;2022-11-20T07:50:14;23.10;;;13.25;;
59109;SDS011;44895;47.438;18.978;2022-11-20T07:53:19;25.33;;;12.68;;
59109;SDS011;44895;47.438;18.978;2022-11-20T07:56:25;23.25;;;13.05;;
59109;SDS011;44895;47.438;18.978;2022-11-20T07:59:29;23.25;;;11.60;;
59109;SDS011;44895;47.438;18.978;2022-11-20T08:02:32;23.23;;;11.65;;
59109;SDS011;44895;47.438;18.978;2022-11-20T08:05:36;20.95;;;12.65;;
59109;SDS011;44895;47.438;18.978;2022-11-20T08:08:40;27.08;;;15.95;;
59109;SDS011;44895;47.438;18.978;2022-11-20T08:11:44;22.13;;;14.07;;
59109;SDS011;44895;47.438;18.978;2022-11-20T08:15:07;26.70;;;16.25;;
59109;SDS011;44895;47.438;18.978;2022-11-20T08:18:12;23.40;;;14.38;;
59109;SDS011;44895;47.438;18.978;2022-11-20T08:21:16;21.05;;;11.95;;
59109;SDS011;44895;47.438;18.978;2022-11-20T08:24:20;21.80;;;11.98;;
59109;SDS011;44895;47.438;18.978;2022-11-20T08:27:24;20.75;;;12.00;;
59109;SDS011;44895;47.438;18.978;2022-11-20T08:30:28;19.73;;;11.70;;
59109;SDS011;44895;47.438;18.978;2022-11-20T08:33:32;23.17;;;14.48;;
59109;SDS011;44895;47.438;18.978;2022-11-20T08:36:36;23.63;;;14.32;;
59109;SDS011;44895;47.438;18.978;2022-11-20T08:39:40;28.70;;;15.55;;
59109;SDS011;44895;47.438;18.978;2022-11-20T08:42:47;22.30;;;13.57;;
59109;SDS011;44895;47.438;18.978;2022-11-20T08:45:52;25.75;;;12.93;;
59109;SDS011;44895;47.438;18.978;2022-11-20T08:48:56;23.85;;;15.43;;
59109;SDS011;44895;47.438;18.978;2022-11-20T08:52:00;35.30;;;18.95;;
59109;SDS011;44895;47.438;18.978;2022-11-20T08:55:05;26.42;;;16.02;;
59109;SDS011;44895;47.438;18.978;2022-11-20T08:58:09;29.58;;;16.55;;
59109;SDS011;44895;47.438;18.978;2022-11-20T09:01:13;24.35;;;17.42;;
59109;SDS011;44895;47.438;18.978;2022-11-20T09:04:17;22.30;;;14.27;;
59109;SDS011;44895;47.438;18.978;2022-11-20T09:07:21;25.35;;;15.43;;
59109;SDS011;44895;47.438;18.978;2022-11-20T09:10:25;21.00;;;11.73;;
59109;SDS011;44895;47.438;18.978;2022-11-20T09:13:32;25.77;;;13.38;;
59109;SDS011;44895;47.438;18.978;2022-11-20T09:16:38;22.38;;;13.07;;
59109;SDS011;44895;47.438;18.978;2022-11-20T09:19:42;26.50;;;13.73;;
59109;SDS011;44895;47.438;18.978;2022-11-20T09:22:46;20.77;;;13.82;;
59109;SDS011;44895;47.438;18.978;2022-11-20T09:25:50;23.60;;;13.77;;
59109;SDS011;44895;47.438;18.978;2022-11-20T09:28:54;20.92;;;12.30;;
59109;SDS011;44895;47.438;18.978;2022-11-20T09:31:59;23.48;;;14.32;;
59109;SDS011;44895;47.438;18.978;2022-11-20T09:35:03;24.20;;;13.88;;
59109;SDS011;44895;47.438;18.978;2022-11-20T09:38:07;20.60;;;13.52;;
59109;SDS011;44895;47.438;18.978;2022-11-20T09:54:37;24.10;;;13.32;;
59109;SDS011;44895;47.438;18.978;2022-11-20T09:57:45;25.80;;;14.27;;
59109;SDS011;44895;47.438;18.978;2022-11-20T10:00:52;23.88;;;13.60;;
59109;SDS011;44895;47.438;18.978;2022-11-20T10:07:12;25.58;;;13.45;;
59109;SDS011;44895;47.438;18.978;2022-11-20T10:20:44;26.38;;;15.70;;
59109;SDS011;44895;47.438;18.978;2022-11-20T10:30:40;25.02;;;13.55;;
59109;SDS011;44895;47.438;18.978;2022-11-20T10:33:46;23.70;;;14.63;;
59109;SDS011;44895;47.438;18.978;2022-11-20T10:36:58;22.20;;;12.57;;
59109;SDS011;44895;47.438;18.978;2022-11-20T10:43:36;21.77;;;13.73;;
59109;SDS011;44895;47.438;18.978;2022-11-20T10:46:40;23.92;;;14.32;;
59109;SDS011;44895;47.438;18.978;2022-11-20T10:53:04;28.10;;;16.75;;
59109;SDS011;44895;47.438;18.978;2022-11-20T10:57:02;22.23;;;13.40;;
59109;SDS011;44895;47.438;18.978;2022-11-20T10:59:55;26.65;;;14.75;;
59109;SDS011;44895;47.438;18.978;2022-11-20T11:03:26;27.08;;;13.90;;
59109;SDS011;44895;47.438;18.978;2022-11-20T11:09:38;28.40;;;16.42;;
59109;SDS011;44895;47.438;18.978;2022-11-20T11:12:46;32.67;;;19.67;;
59109;SDS011;44895;47.438;18.978;2022-11-20T11:15:52;25.15;;;15.10;;
59109;SDS011;44895;47.438;18.978;2022-11-20T11:19:06;23.95;;;14.35;;
59109;SDS011;44895;47.438;18.978;2022-11-20T11:22:17;23.67;;;13.80;;
59109;SDS011;44895;47.438;18.978;2022-11-20T11:28:39;25.13;;;16.27;;
59109;SDS011;44895;47.438;18.978;2022-11-20T11:31:42;19.58;;;13.52;;
59109;SDS011;44895;47.438;18.978;2022-11-20T11:35:03;23.95;;;14.65;;
59109;SDS011;44895;47.438;18.978;2022-11-20T11:38:12;23.40;;;15.88;;
59109;SDS011;44895;47.438;18.978;2022-11-20T11:41:24;25.00;;;12.90;;
59109;SDS011;44895;47.438;18.978;2022-11-20T11:44:32;22.55;;;14.02;;
59109;SDS011;44895;47.438;18.978;2022-11-20T11:47:57;23.13;;;14.55;;
59109;SDS011;44895;47.438;18.978;2022-11-20T11:51:07;27.02;;;16.63;;
59109;SDS011;44895;47.438;18.978;2022-11-20T11:54:16;22.20;;;12.13;;
59109;SDS011;44895;47.438;18.978;2022-11-20T11:58:08;25.58;;;16.55;;
59109;SDS011;44895;47.438;18.978;2022-11-20T12:07:47;28.05;;;15.30;;
59109;SDS011;44895;47.438;18.978;2022-11-20T12:14:09;26.70;;;16.85;;
59109;SDS011;44895;47.438;18.978;2022-11-20T12:17:20;24.75;;;17.17;;
59109;SDS011;44895;47.438;18.978;2022-11-20T12:20:26;29.80;;;17.40;;
59109;SDS011;44895;47.438;18.978;2022-11-20T12:30:38;30.23;;;15.60;;
59109;SDS011;44895;47.438;18.978;2022-11-20T12:34:15;29.77;;;15.88;;
59109;SDS011;44895;47.438;18.978;2022-11-20T12:48:38;27.60;;;17.95;;
59109;SDS011;44895;47.438;18.978;2022-11-20T12:51:50;26.70;;;15.05;;
59109;SDS011;44895;47.438;18.978;2022-11-20T12:55:28;28.33;;;15.60;;
59109;SDS011;44895;47.438;18.978;2022-11-20T13:02:30;24.70;;;15.40;;
59109;SDS011;44895;47.438;18.978;2022-11-20T13:05:43;24.77;;;14.65;;
59109;SDS011;44895;47.438;18.978;2022-11-20T13:09:14;30.58;;;14.18;;
59109;SDS011;44895;47.438;18.978;2022-11-20T13:12:29;27.17;;;13.75;;
59109;SDS011;44895;47.438;18.978;2022-11-20T13:15:53;24.58;;;13.90;;
59109;SDS011;44895;47.438;18.978;2022-11-20T13:19:11;24.05;;;13.30;;
59109;SDS011;44895;47.438;18.978;2022-11-20T13:22:25;21.25;;;13.35;;
59109;SDS011;44895;47.438;18.978;2022-11-20T13:25:32;29.95;;;13.45;;
59109;SDS011;44895;47.438;18.978;2022-11-20T13:28:40;24.10;;;14.88;;
59109;SDS011;44895;47.438;18.978;2022-11-20T13:31:46;23.50;;;15.57;;
59109;SDS011;44895;47.438;18.978;2022-11-20T13:34:54;24.55;;;14.07;;
59109;SDS011;44895;47.438;18.978;2022-11-20T13:38:11;40.80;;;14.98;;
59109;SDS011;44895;47.438;18.978;2022-11-20T13:44:42;28.30;;;16.17;;
59109;SDS011;44895;47.438;18.978;2022-11-20T13:48:15;24.45;;;13.90;;
59109;SDS011;44895;47.438;18.978;2022-11-20T13:54:48;22.83;;;13.95;;
59109;SDS011;44895;47.438;18.978;2022-11-20T14:01:38;21.75;;;13.27;;
59109;SDS011;44895;47.438;18.978;2022-11-20T14:04:43;22.70;;;11.52;;
59109;SDS011;44895;47.438;18.978;2022-11-20T14:07:50;22.95;;;13.43;;
59109;SDS011;44895;47.438;18.978;2022-11-20T14:11:12;22.27;;;11.80;;
59109;SDS011;44895;47.438;18.978;2022-11-20T14:14:25;21.88;;;11.82;;
59109;SDS011;44895;47.438;18.978;2022-11-20T14:17:33;22.60;;;13.18;;
59109;SDS011;44895;47.438;18.978;2022-11-20T14:20:39;25.77;;;13.35;;
59109;SDS011;44895;47.438;18.978;2022-11-20T14:23:45;24.10;;;15.55;;
59109;SDS011;44895;47.438;18.978;2022-11-20T14:26:49;27.00;;;18.60;;
59109;SDS011;44895;47.438;18.978;2022-11-20T14:29:54;27.48;;;18.55;;
59109;SDS011;44895;47.438;18.978;2022-11-20T14:33:01;34.97;;;23.80;;
59109;SDS011;44895;47.438;18.978;2022-11-20T14:36:15;31.70;;;20.55;;
59109;SDS011;44895;47.438;18.978;2022-11-20T14:39:22;28.65;;;17.60;;
59109;SDS011;44895;47.438;18.978;2022-11-20T14:42:31;23.48;;;15.23;;
59109;SDS011;44895;47.438;18.978;2022-11-20T14:45:35;28.63;;;17.38;;
59109;SDS011;44895;47.438;18.978;2022-11-20T14:48:47;25.75;;;15.23;;
59109;SDS011;44895;47.438;18.978;2022-11-20T14:52:01;30.20;;;15.10;;
59109;SDS011;44895;47.438;18.978;2022-11-20T14:55:29;24.67;;;16.50;;
59109;SDS011;44895;47.438;18.978;2022-11-20T14:58:37;35.00;;;20.25;;
59109;SDS011;44895;47.438;18.978;2022-11-20T15:01:41;27.52;;;18.23;;
59109;SDS011;44895;47.438;18.978;2022-11-20T15:05:02;55.88;;;36.88;;
59109;SDS011;44895;47.438;18.978;2022-11-20T15:08:07;40.13;;;25.85;;
59109;SDS011;44895;47.438;18.978;2022-11-20T15:11:20;33.47;;;22.52;;
59109;SDS011;44895;47.438;18.978;2022-11-20T15:14:33;37.28;;;24.10;;
59109;SDS011;44895;47.438;18.978;2022-11-20T15:17:40;34.08;;;25.15;;
59109;SDS011;44895;47.438;18.978;2022-11-20T15:20:45;34.63;;;23.40;;
59109;SDS011;44895;47.438;18.978;2022-11-20T15:23:50;36.90;;;21.98;;
59109;SDS011;44895;47.438;18.978;2022-11-20T15:26:55;32.38;;;20.50;;
59109;SDS011;44895;47.438;18.978;2022-11-20T15:30:00;26.60;;;16.45;;
59109;SDS011;44895;47.438;18.978;2022-11-20T15:33:07;30.63;;;18.20;;
59109;SDS011;44895;47.438;18.978;2022-11-20T15:36:12;29.27;;;19.30;;
59109;SDS011;44895;47.438;18.978;2022-11-20T15:39:16;26.63;;;16.58;;
59109;SDS011;44895;47.438;18.978;2022-11-20T15:42:21;25.25;;;14.63;;
59109;SDS011;44895;47.438;18.978;2022-11-20T15:45:26;30.27;;;17.92;;
59109;SDS011;44895;47.438;18.978;2022-11-20T15:48:37;28.60;;;16.92;;
59109;SDS011;44895;47.438;18.978;2022-11-20T15:51:46;28.02;;;15.77;;
59109;SDS011;44895;47.438;18.978;2022-11-20T15:54:52;25.27;;;15.02;;
59109;SDS011;44895;47.438;18.978;2022-11-20T15:57:57;32.63;;;16.40;;
59109;SDS011;44895;47.438;18.978;2022-11-20T16:01:01;30.88;;;19.48;;
59109;SDS011;44895;47.438;18.978;2022-11-20T16:04:10;30.35;;;20.70;;
59109;SDS011;44895;47.438;18.978;2022-11-20T16:07:15;35.22;;;20.63;;
59109;SDS011;44895;47.438;18.978;2022-11-20T16:10:20;29.48;;;16.85;;
59109;SDS011;44895;47.438;18.978;2022-11-20T16:13:25;35.60;;;18.20;;
59109;SDS011;44895;47.438;18.978;2022-11-20T16:16:47;25.55;;;15.43;;
59109;SDS011;44895;47.438;18.978;2022-11-20T16:19:51;30.35;;;16.55;;
59109;SDS011;44895;47.438;18.978;2022-11-20T16:22:55;23.85;;;15.15;;
59109;SDS011;44895;47.438;18.978;2022-11-20T16:25:59;43.72;;;28.67;;
59109;SDS011;44895;47.438;18.978;2022-11-20T16:29:13;39.72;;;25.48;;
59109;SDS011;44895;47.438;18.978;2022-11-20T16:32:17;31.05;;;15.68;;
59109;SDS011;44895;47.438;18.978;2022-11-20T16:35:20;34.38;;;17.60;;
59109;SDS011;44895;47.438;18.978;2022-11-20T16:38:24;32.53;;;17.50;;
59109;SDS011;44895;47.438;18.978;2022-11-20T16:41:30;32.05;;;17.08;;
59109;SDS011;44895;47.438;18.978;2022-11-20T16:44:35;27.75;;;15.40;;
59109;SDS011;44895;47.438;18.978;2022-11-20T16:47:39;26.92;;;13.88;;
59109;SDS011;44895;47.438;18.978;2022-11-20T16:50:51;28.90;;;17.63;;
59109;SDS011;44895;47.438;18.978;2022-11-20T16:53:56;27.80;;;15.40;;
59109;SDS011;44895;47.438;18.978;2022-11-20T16:57:00;29.23;;;17.02;;
59109;SDS011;44895;47.438;18.978;2022-11-20T17:00:04;30.60;;;15.68;;
59109;SDS011;44895;47.438;18.978;2022-11-20T17:03:09;27.25;;;16.08;;
59109;SDS011;44895;47.438;18.978;2022-11-20T17:06:18;27.23;;;16.55;;
59109;SDS011;44895;47.438;18.978;2022-11-20T17:09:23;27.90;;;16.15;;
59109;SDS011;44895;47.438;18.978;2022-11-20T17:12:27;26.17;;;16.48;;
59109;SDS011;44895;47.438;18.978;2022-11-20T17:15:31;29.00;;;17.20;;
59109;SDS011;44895;47.438;18.978;2022-11-20T17:18:35;31.70;;;16.45;;
59109;SDS011;44895;47.438;18.978;2022-11-20T17:21:39;28.52;;;13.77;;
59109;SDS011;44895;47.438;18.978;2022-11-20T17:24:43;30.33;;;18.00;;
59109;SDS011;44895;47.438;18.978;2022-11-20T17:27:47;31.33;;;16.40;;
59109;SDS011;44895;47.438;18.978;2022-11-20T17:30:51;34.72;;;17.90;;
59109;SDS011;44895;47.438;18.978;2022-11-20T17:33:55;27.20;;;16.15;;
59109;SDS011;44895;47.438;18.978;2022-11-20T17:36:59;25.98;;;16.23;;
59109;SDS011;44895;47.438;18.978;2022-11-20T17:40:03;31.38;;;18.80;;
59109;SDS011;44895;47.438;18.978;2022-11-20T17:43:07;25.70;;;16.25;;
59109;SDS011;44895;47.438;18.978;2022-11-20T17:46:15;32.08;;;17.73;;
59109;SDS011;44895;47.438;18.978;2022-11-20T17:49:21;28.10;;;15.13;;
59109;SDS011;44895;47.438;18.978;2022-11-20T17:52:25;27.52;;;15.93;;
59109;SDS011;44895;47.438;18.978;2022-11-20T17:55:28;32.08;;;16.88;;
59109;SDS011;44895;47.438;18.978;2022-11-20T17:58:53;31.02;;;18.77;;
59109;SDS011;44895;47.438;18.978;2022-11-20T18:01:57;31.30;;;16.73;;
59109;SDS011;44895;47.438;18.978;2022-11-20T18:05:02;27.83;;;17.35;;
59109;SDS011;44895;47.438;18.978;2022-11-20T18:08:06;36.92;;;20.85;;
59109;SDS011;44895;47.438;18.978;2022-11-20T18:11:23;32.63;;;19.33;;
59109;SDS011;44895;47.438;18.978;2022-11-20T18:14:29;39.50;;;21.92;;
59109;SDS011;44895;47.438;18.978;2022-11-20T18:17:38;34.35;;;19.73;;
59109;SDS011;44895;47.438;18.978;2022-11-20T18:20:42;33.38;;;18.45;;
59109;SDS011;44895;47.438;18.978;2022-11-20T18:23:46;28.08;;;17.08;;
59109;SDS011;44895;47.438;18.978;2022-11-20T18:26:50;35.28;;;20.65;;
59109;SDS011;44895;47.438;18.978;2022-11-20T18:29:54;41.10;;;22.48;;
59109;SDS011;44895;47.438;18.978;2022-11-20T18:32:58;39.42;;;21.52;;
59109;SDS011;44895;47.438;18.978;2022-11-20T18:36:16;35.22;;;19.92;;
59109;SDS011;44895;47.438;18.978;2022-11-20T18:39:27;36.05;;;21.80;;
59109;SDS011;44895;47.438;18.978;2022-11-20T18:42:30;32.95;;;19.23;;
59109;SDS011;44895;47.438;18.978;2022-11-20T18:46:00;31.55;;;18.42;;
59109;SDS011;44895;47.438;18.978;2022-11-20T18:49:08;36.33;;;21.67;;
59109;SDS011;44895;47.438;18.978;2022-11-20T18:52:13;35.22;;;19.35;;
59109;SDS011;44895;47.438;18.978;2022-11-20T18:55:18;31.95;;;20.20;;
59109;SDS011;44895;47.438;18.978;2022-11-20T18:58:21;36.17;;;23.90;;
59109;SDS011;44895;47.438;18.978;2022-11-20T19:01:26;44.15;;;24.92;;
59109;SDS011;44895;47.438;18.978;2022-11-20T19:04:30;39.33;;;24.27;;
59109;SDS011;44895;47.438;18.978;2022-11-20T19:07:35;43.40;;;25.50;;
59109;SDS011;44895;47.438;18.978;2022-11-20T19:10:39;42.92;;;23.65;;
59109;SDS011;44895;47.438;18.978;2022-11-20T19:13:43;35.92;;;20.45;;
59109;SDS011;44895;47.438;18.978;2022-11-20T19:16:47;34.25;;;19.67;;
59109;SDS011;44895;47.438;18.978;2022-11-20T19:19:51;35.05;;;20.27;;
59109;SDS011;44895;47.438;18.978;2022-11-20T19:22:57;29.63;;;17.17;;
59109;SDS011;44895;47.438;18.978;2022-11-20T19:26:01;30.00;;;16.63;;
59109;SDS011;44895;47.438;18.978;2022-11-20T19:29:05;29.45;;;17.98;;
59109;SDS011;44895;47.438;18.978;2022-11-20T19:32:09;30.17;;;16.50;;
59109;SDS011;44895;47.438;18.978;2022-11-20T19:35:13;25.33;;;15.70;;
59109;SDS011;44895;47.438;18.978;2022-11-20T19:38:17;30.85;;;17.75;;